createdAt,value
2023-03-17T00:00:21.609Z,1003.02
2023-03-17T00:01:21.616Z,1003.01
2023-03-17T00:02:21.587Z,1003.02
2023-03-17T00:03:21.608Z,1003.05
2023-03-17T00:04:21.538Z,1003.14
2023-03-17T00:05:21.519Z,1003.22
2023-03-17T00:06:21.518Z,1003.28
2023-03-17T00:07:21.528Z,1003.31
2023-03-17T00:08:21.498Z,1003.34
2023-03-17T00:09:21.485Z,1003.40
2023-03-17T00:10:21.467Z,1003.38
2023-03-17T00:11:21.460Z,1003.37
2023-03-17T00:12:21.459Z,1003.38
2023-03-17T00:13:21.577Z,1003.33
2023-03-17T00:14:21.467Z,1003.37
2023-03-17T00:15:21.418Z,1003.35
2023-03-17T00:16:21.490Z,1003.33
2023-03-17T00:17:21.402Z,1003.29
2023-03-17T00:18:21.398Z,1003.37
2023-03-17T00:19:21.407Z,1003.42
2023-03-17T00:20:21.396Z,1003.44
2023-03-17T00:21:21.362Z,1003.47
2023-03-17T00:22:21.348Z,1003.48
2023-03-17T00:23:21.339Z,1003.49
2023-03-17T00:24:21.369Z,1003.50
2023-03-17T00:25:21.349Z,1003.49
2023-03-17T00:26:21.320Z,1003.46
2023-03-17T00:27:21.302Z,1003.46
2023-03-17T00:28:21.301Z,1003.49
2023-03-17T00:29:21.284Z,1003.53
2023-03-17T00:30:21.299Z,1003.56
2023-03-17T00:31:21.405Z,1003.56
2023-03-17T00:32:21.249Z,1003.53
2023-03-17T00:33:21.238Z,1003.53
2023-03-17T00:34:21.220Z,1003.54
2023-03-17T00:35:21.207Z,1003.53
2023-03-17T00:36:21.246Z,1003.56
2023-03-17T00:37:21.205Z,1003.53
2023-03-17T00:38:21.189Z,1003.55
2023-03-17T00:39:21.154Z,1003.51
2023-03-17T00:40:21.198Z,1003.52
2023-03-17T00:41:21.134Z,1003.47
2023-03-17T00:42:21.146Z,1003.47
2023-03-17T00:43:21.115Z,1003.49
2023-03-17T00:44:21.104Z,1003.53
2023-03-17T00:45:21.093Z,1003.57
2023-03-17T00:46:21.172Z,1003.54
2023-03-17T00:47:21.079Z,1003.53
2023-03-17T00:48:21.124Z,1003.50
2023-03-17T00:49:22.823Z,1003.53
2023-03-17T00:50:21.031Z,1003.55
2023-03-17T00:51:21.076Z,1003.52
2023-03-17T00:52:21.083Z,1003.51
2023-03-17T00:53:21.018Z,1003.52
2023-03-17T00:54:21.019Z,1003.51
2023-03-17T00:55:20.991Z,1003.48
2023-03-17T00:56:28.024Z,1003.48
2023-03-17T00:57:23.672Z,1003.45
2023-03-17T00:58:20.982Z,1003.46
2023-03-17T00:59:23.611Z,1003.44
2023-03-17T01:00:20.951Z,1003.43
2023-03-17T01:01:20.949Z,1003.40
2023-03-17T01:02:21.038Z,1003.35
2023-03-17T01:03:20.903Z,1003.38
2023-03-17T01:04:20.992Z,1003.30
2023-03-17T01:05:20.884Z,1003.31
2023-03-17T01:06:20.877Z,1003.25
2023-03-17T01:07:20.869Z,1003.22
2023-03-17T01:08:20.850Z,1003.18
2023-03-17T01:09:20.840Z,1003.10
2023-03-17T01:10:20.905Z,1003.11
2023-03-17T01:11:20.823Z,1003.08
2023-03-17T01:12:20.807Z,1003.13
2023-03-17T01:13:20.807Z,1003.03
2023-03-17T01:14:20.835Z,1002.98
2023-03-17T01:15:20.779Z,1003.00
2023-03-17T01:16:20.819Z,1002.95
2023-03-17T01:17:20.760Z,1002.95
2023-03-17T01:18:20.817Z,1002.98
2023-03-17T01:19:20.986Z,1002.99
2023-03-17T01:20:20.949Z,1002.94
2023-03-17T01:21:20.734Z,1002.97
2023-03-17T01:22:20.696Z,1003.01
2023-03-17T01:23:20.692Z,1003.01
2023-03-17T01:24:20.721Z,1002.97
2023-03-17T01:25:20.711Z,1002.96
2023-03-17T01:26:20.652Z,1002.96
2023-03-17T01:27:20.666Z,1002.87
2023-03-17T01:28:20.643Z,1002.90
2023-03-17T01:29:20.664Z,1002.80
2023-03-17T01:30:20.660Z,1002.81
2023-03-17T01:31:20.775Z,1002.86
2023-03-17T01:32:20.606Z,1002.86
2023-03-17T01:33:20.584Z,1002.85
2023-03-17T01:34:20.570Z,1002.91
2023-03-17T01:35:20.682Z,1002.93
2023-03-17T01:36:20.567Z,1002.90
2023-03-17T01:37:20.542Z,1002.88
2023-03-17T01:38:20.541Z,1002.87
2023-03-17T01:39:20.538Z,1002.87
2023-03-17T01:40:20.552Z,1002.86
2023-03-17T01:41:20.522Z,1002.86
2023-03-17T01:42:20.503Z,1002.85
2023-03-17T01:43:20.506Z,1002.81
2023-03-17T01:44:20.464Z,1002.88
2023-03-17T01:45:20.452Z,1002.81
2023-03-17T01:46:20.441Z,1002.78
2023-03-17T01:47:20.461Z,1002.77
2023-03-17T01:48:20.420Z,1002.73
2023-03-17T01:49:20.421Z,1002.70
2023-03-17T01:50:20.409Z,1002.65
2023-03-17T01:51:20.382Z,1002.67
2023-03-17T01:52:20.386Z,1002.63
2023-03-17T01:53:20.411Z,1002.62
2023-03-17T01:54:20.353Z,1002.61
2023-03-17T01:55:20.347Z,1002.57
2023-03-17T01:56:20.348Z,1002.48
2023-03-17T01:57:20.321Z,1002.49
2023-03-17T01:58:20.330Z,1002.53
2023-03-17T01:59:20.338Z,1002.51
2023-03-17T02:00:20.364Z,1002.53
2023-03-17T02:01:20.361Z,1002.56
2023-03-17T02:02:20.285Z,1002.50
2023-03-17T02:03:20.277Z,1002.46
2023-03-17T02:04:20.264Z,1002.45
2023-03-17T02:05:20.251Z,1002.41
2023-03-17T02:06:20.334Z,1002.41
2023-03-17T02:07:20.209Z,1002.39
2023-03-17T02:08:20.210Z,1002.41
2023-03-17T02:09:20.200Z,1002.38
2023-03-17T02:10:20.181Z,1002.38
2023-03-17T02:11:20.173Z,1002.36
2023-03-17T02:12:20.189Z,1002.36
2023-03-17T02:13:20.180Z,1002.39
2023-03-17T02:14:20.179Z,1002.42
2023-03-17T02:15:20.155Z,1002.36
2023-03-17T02:16:20.219Z,1002.36
2023-03-17T02:17:20.099Z,1002.34
2023-03-17T02:18:20.154Z,1002.35
2023-03-17T02:19:20.098Z,1002.32
2023-03-17T02:20:20.157Z,1002.33
2023-03-17T02:21:20.069Z,1002.31
2023-03-17T02:22:20.070Z,1002.28
2023-03-17T02:23:20.038Z,1002.30
2023-03-17T02:24:20.089Z,1002.28
2023-03-17T02:25:20.068Z,1002.30
2023-03-17T02:26:20.023Z,1002.29
2023-03-17T02:27:20.026Z,1002.28
2023-03-17T02:28:19.994Z,1002.28
2023-03-17T02:29:19.989Z,1002.26
2023-03-17T02:30:19.986Z,1002.29
2023-03-17T02:31:20.160Z,1002.28
2023-03-17T02:32:19.962Z,1002.26
2023-03-17T02:33:19.960Z,1002.24
2023-03-17T02:34:19.998Z,1002.22
2023-03-17T02:35:20.003Z,1002.20
2023-03-17T02:36:19.936Z,1002.24
2023-03-17T02:37:19.891Z,1002.29
2023-03-17T02:38:19.897Z,1002.31
2023-03-17T02:39:19.872Z,1002.35
2023-03-17T02:40:19.900Z,1002.33
2023-03-17T02:41:19.881Z,1002.34
2023-03-17T02:42:19.872Z,1002.31
2023-03-17T02:43:19.837Z,1002.30
2023-03-17T02:44:19.828Z,1002.33
2023-03-17T02:45:19.832Z,1002.35
2023-03-17T02:46:19.867Z,1002.35
2023-03-17T02:47:19.801Z,1002.37
2023-03-17T02:48:19.792Z,1002.32
2023-03-17T02:49:19.772Z,1002.33
2023-03-17T02:50:19.806Z,1002.26
2023-03-17T02:51:19.754Z,1002.25
2023-03-17T02:52:19.794Z,1002.26
2023-03-17T02:53:19.755Z,1002.27
2023-03-17T02:54:19.727Z,1002.30
2023-03-17T02:55:19.760Z,1002.34
2023-03-17T02:56:20.231Z,1002.40
2023-03-17T02:57:19.683Z,1002.36
2023-03-17T02:58:19.675Z,1002.35
2023-03-17T02:59:19.670Z,1002.40
2023-03-17T03:00:19.652Z,1002.33
2023-03-17T03:01:19.682Z,1002.30
2023-03-17T03:02:19.727Z,1002.31
2023-03-17T03:03:19.624Z,1002.31
2023-03-17T03:04:19.623Z,1002.28
2023-03-17T03:05:19.597Z,1002.30
2023-03-17T03:06:19.593Z,1002.31
2023-03-17T03:07:19.574Z,1002.33
2023-03-17T03:08:19.597Z,1002.31
2023-03-17T03:09:19.594Z,1002.31
2023-03-17T03:10:19.552Z,1002.33
2023-03-17T03:11:19.532Z,1002.31
2023-03-17T03:12:19.532Z,1002.26
2023-03-17T03:13:19.511Z,1002.35
2023-03-17T03:14:19.522Z,1002.32
2023-03-17T03:15:19.482Z,1002.32
2023-03-17T03:16:19.601Z,1002.37
2023-03-17T03:17:19.511Z,1002.37
2023-03-17T03:18:19.467Z,1002.43
2023-03-17T03:19:19.446Z,1002.38
2023-03-17T03:20:19.483Z,1002.43
2023-03-17T03:21:19.422Z,1002.38
2023-03-17T03:22:19.424Z,1002.39
2023-03-17T03:23:19.453Z,1002.41
2023-03-17T03:24:19.397Z,1002.41
2023-03-17T03:25:19.383Z,1002.40
2023-03-17T03:26:19.416Z,1002.39
2023-03-17T03:27:19.400Z,1002.37
2023-03-17T03:28:19.366Z,1002.38
2023-03-17T03:29:19.348Z,1002.38
2023-03-17T03:30:19.331Z,1002.34
2023-03-17T03:31:19.394Z,1002.32
2023-03-17T03:32:19.375Z,1002.31
2023-03-17T03:33:19.302Z,1002.28
2023-03-17T03:34:19.296Z,1002.26
2023-03-17T03:35:19.279Z,1002.27
2023-03-17T03:36:19.303Z,1002.32
2023-03-17T03:37:19.252Z,1002.33
2023-03-17T03:38:19.290Z,1002.32
2023-03-17T03:39:19.260Z,1002.29
2023-03-17T03:40:19.230Z,1002.36
2023-03-17T03:41:19.292Z,1002.32
2023-03-17T03:42:19.210Z,1002.32
2023-03-17T03:43:23.421Z,1002.32
2023-03-17T03:44:19.184Z,1002.30
2023-03-17T03:45:19.172Z,1002.30
2023-03-17T03:46:19.211Z,1002.28
2023-03-17T03:47:19.180Z,1002.28
2023-03-17T03:48:19.144Z,1002.29
2023-03-17T03:49:19.124Z,1002.31
2023-03-17T03:50:19.171Z,1002.31
2023-03-17T03:51:19.104Z,1002.35
2023-03-17T03:52:19.162Z,1002.31
2023-03-17T03:53:19.090Z,1002.34
2023-03-17T03:54:19.290Z,1002.35
2023-03-17T03:55:19.056Z,1002.34
2023-03-17T03:56:19.069Z,1002.35
2023-03-17T03:57:19.064Z,1002.33
2023-03-17T03:58:19.026Z,1002.31
2023-03-17T03:59:19.020Z,1002.26
2023-03-17T04:00:19.017Z,1002.21
2023-03-17T04:01:18.996Z,1002.25
2023-03-17T04:02:19.115Z,1002.19
2023-03-17T04:03:19.014Z,1002.20
2023-03-17T04:04:19.007Z,1002.25
2023-03-17T04:05:18.961Z,1002.22
2023-03-17T04:06:18.955Z,1002.24
2023-03-17T04:07:18.953Z,1002.24
2023-03-17T04:08:18.931Z,1002.17
2023-03-17T04:09:18.923Z,1002.17
2023-03-17T04:10:18.935Z,1002.14
2023-03-17T04:11:18.907Z,1002.12
2023-03-17T04:12:18.885Z,1002.16
2023-03-17T04:13:18.864Z,1002.19
2023-03-17T04:14:18.862Z,1002.23
2023-03-17T04:15:18.844Z,1002.32
2023-03-17T04:16:18.967Z,1002.31
2023-03-17T04:17:18.864Z,1002.27
2023-03-17T04:18:18.816Z,1002.27
2023-03-17T04:19:18.833Z,1002.25
2023-03-17T04:20:18.796Z,1002.19
2023-03-17T04:21:18.838Z,1002.11
2023-03-17T04:22:18.773Z,1002.16
2023-03-17T04:23:18.813Z,1002.15
2023-03-17T04:24:18.795Z,1002.17
2023-03-17T04:25:18.779Z,1002.17
2023-03-17T04:26:18.796Z,1002.17
2023-03-17T04:27:18.731Z,1002.16
2023-03-17T04:28:18.733Z,1002.16
2023-03-17T04:29:18.712Z,1002.16
2023-03-17T04:30:18.726Z,1002.15
2023-03-17T04:31:18.730Z,1002.14
2023-03-17T04:32:18.676Z,1002.15
2023-03-17T04:33:18.652Z,1002.14
2023-03-17T04:34:18.680Z,1002.11
2023-03-17T04:35:18.625Z,1002.10
2023-03-17T04:36:18.671Z,1002.13
2023-03-17T04:37:18.604Z,1002.13
2023-03-17T04:38:18.612Z,1002.15
2023-03-17T04:39:18.589Z,1002.18
2023-03-17T04:40:18.639Z,1002.16
2023-03-17T04:41:18.607Z,1002.22
2023-03-17T04:42:18.605Z,1002.17
2023-03-17T04:43:18.589Z,1002.19
2023-03-17T04:44:18.538Z,1002.17
2023-03-17T04:45:18.521Z,1002.13
2023-03-17T04:46:18.535Z,1002.16
2023-03-17T04:47:18.506Z,1002.08
2023-03-17T04:48:18.526Z,1002.12
2023-03-17T04:49:18.485Z,1002.04
2023-03-17T04:50:18.470Z,1002.07
2023-03-17T04:51:18.513Z,1002.09
2023-03-17T04:52:18.460Z,1002.06
2023-03-17T04:53:18.446Z,1002.12
2023-03-17T04:54:18.437Z,1002.19
2023-03-17T04:55:18.454Z,1002.15
2023-03-17T04:56:18.442Z,1002.15
2023-03-17T04:57:18.391Z,1002.16
2023-03-17T04:58:29.858Z,1002.20
2023-03-17T04:59:19.371Z,1002.21
2023-03-17T05:00:18.370Z,1002.19
2023-03-17T05:01:18.432Z,1002.25
2023-03-17T05:02:18.434Z,1002.21
2023-03-17T05:03:26.746Z,1002.21
2023-03-17T05:04:30.814Z,1002.21
2023-03-17T05:05:19.303Z,1002.22
2023-03-17T05:06:18.323Z,1002.23
2023-03-17T05:07:18.283Z,1002.22
2023-03-17T05:08:18.332Z,1002.23
2023-03-17T05:09:18.315Z,1002.23
2023-03-17T05:10:18.260Z,1002.21
2023-03-17T05:11:18.241Z,1002.17
2023-03-17T05:12:18.288Z,1002.17
2023-03-17T05:13:18.245Z,1002.17
2023-03-17T05:14:18.219Z,1002.20
2023-03-17T05:15:18.212Z,1002.17
2023-03-17T05:16:18.228Z,1002.17
2023-03-17T05:17:18.235Z,1002.10
2023-03-17T05:18:18.173Z,1002.11
2023-03-17T05:19:18.213Z,1002.04
2023-03-17T05:20:18.197Z,1002.08
2023-03-17T05:21:18.147Z,1002.09
2023-03-17T05:22:18.133Z,1002.13
2023-03-17T05:23:18.124Z,1002.13
2023-03-17T05:24:18.120Z,1002.13
2023-03-17T05:25:18.140Z,1002.12
2023-03-17T05:26:18.152Z,1002.09
2023-03-17T05:27:18.096Z,1002.06
2023-03-17T05:28:18.109Z,1002.10
2023-03-17T05:29:18.079Z,1002.09
2023-03-17T05:30:18.050Z,1002.12
2023-03-17T05:31:18.082Z,1002.11
2023-03-17T05:32:18.027Z,1002.12
2023-03-17T05:33:18.024Z,1002.18
2023-03-17T05:34:18.044Z,1002.19
2023-03-17T05:35:17.989Z,1002.16
2023-03-17T05:36:17.978Z,1002.14
2023-03-17T05:37:18.109Z,1002.09
2023-03-17T05:38:17.971Z,1002.07
2023-03-17T05:39:17.989Z,1002.09
2023-03-17T05:40:17.957Z,1002.02
2023-03-17T05:41:17.970Z,1002.04
2023-03-17T05:42:17.937Z,1002.05
2023-03-17T05:43:17.915Z,1001.99
2023-03-17T05:44:17.950Z,1002.02
2023-03-17T05:45:17.879Z,1002.03
2023-03-17T05:46:20.226Z,1002.04
2023-03-17T05:47:17.869Z,1002.11
2023-03-17T05:48:17.867Z,1002.12
2023-03-17T05:49:17.849Z,1002.12
2023-03-17T05:50:17.876Z,1002.05
2023-03-17T05:51:17.834Z,1002.09
2023-03-17T05:52:17.882Z,1002.13
2023-03-17T05:53:17.825Z,1002.15
2023-03-17T05:54:17.788Z,1002.16
2023-03-17T05:55:17.817Z,1002.22
2023-03-17T05:56:17.766Z,1002.22
2023-03-17T05:57:17.759Z,1002.23
2023-03-17T05:58:17.739Z,1002.20
2023-03-17T05:59:17.745Z,1002.17
2023-03-17T06:00:17.818Z,1002.17
2023-03-17T06:01:19.617Z,1002.18
2023-03-17T06:02:17.738Z,1002.18
2023-03-17T06:03:17.768Z,1002.19
2023-03-17T06:04:17.678Z,1002.12
2023-03-17T06:05:17.673Z,1002.15
2023-03-17T06:06:17.699Z,1002.12
2023-03-17T06:07:17.680Z,1002.13
2023-03-17T06:08:17.640Z,1002.09
2023-03-17T06:09:17.632Z,1002.11
2023-03-17T06:10:17.617Z,1002.14
2023-03-17T06:11:17.630Z,1002.10
2023-03-17T06:12:17.625Z,1002.11
2023-03-17T06:13:17.591Z,1002.12
2023-03-17T06:14:17.690Z,1002.05
2023-03-17T06:15:17.668Z,1002.05
2023-03-17T06:16:17.608Z,1002.07
2023-03-17T06:17:17.551Z,1002.01
2023-03-17T06:18:17.618Z,1002.00
2023-03-17T06:19:17.536Z,1001.99
2023-03-17T06:20:17.591Z,1002.00
2023-03-17T06:21:17.503Z,1001.97
2023-03-17T06:22:17.502Z,1001.96
2023-03-17T06:23:17.497Z,1001.97
2023-03-17T06:24:17.540Z,1001.98
2023-03-17T06:25:17.597Z,1001.96
2023-03-17T06:26:17.469Z,1001.99
2023-03-17T06:27:17.468Z,1001.99
2023-03-17T06:28:17.472Z,1002.03
2023-03-17T06:29:17.421Z,1002.03
2023-03-17T06:30:22.724Z,1002.07
2023-03-17T06:31:17.434Z,1002.04
2023-03-17T06:32:20.929Z,1002.04
2023-03-17T06:33:17.402Z,1002.05
2023-03-17T06:34:17.386Z,1002.03
2023-03-17T06:35:17.388Z,1001.99
2023-03-17T06:36:17.387Z,1001.98
2023-03-17T06:37:17.336Z,1002.01
2023-03-17T06:38:17.328Z,1002.04
2023-03-17T06:39:17.317Z,1002.02
2023-03-17T06:40:17.467Z,1001.98
2023-03-17T06:41:17.295Z,1002.06
2023-03-17T06:42:17.290Z,1002.07
2023-03-17T06:43:17.267Z,1002.06
2023-03-17T06:44:17.260Z,1002.04
2023-03-17T06:45:17.261Z,1002.04
2023-03-17T06:46:17.308Z,1002.01
2023-03-17T06:47:17.227Z,1002.02
2023-03-17T06:48:17.228Z,1002.03
2023-03-17T06:49:17.197Z,1002.03
2023-03-17T06:50:17.195Z,1002.01
2023-03-17T06:51:17.211Z,1001.98
2023-03-17T06:52:17.171Z,1002.02
2023-03-17T06:53:17.154Z,1002.02
2023-03-17T06:54:17.154Z,1002.11
2023-03-17T06:55:17.138Z,1002.10
2023-03-17T06:56:29.183Z,1002.12
2023-03-17T06:57:18.145Z,1002.11
2023-03-17T06:58:17.103Z,1002.10
2023-03-17T06:59:17.098Z,1002.13
2023-03-17T07:00:17.087Z,1002.12
2023-03-17T07:01:17.179Z,1002.07
2023-03-17T07:02:17.136Z,1002.07
2023-03-17T07:03:17.094Z,1002.09
2023-03-17T07:04:17.070Z,1002.09
2023-03-17T07:05:17.025Z,1002.09
2023-03-17T07:06:17.034Z,1002.08
2023-03-17T07:07:17.055Z,1002.10
2023-03-17T07:08:17.003Z,1002.10
2023-03-17T07:09:17.004Z,1002.14
2023-03-17T07:10:16.973Z,1002.11
2023-03-17T07:11:17.083Z,1002.13
2023-03-17T07:12:16.982Z,1002.10
2023-03-17T07:13:16.944Z,1002.07
2023-03-17T07:14:16.922Z,1002.11
2023-03-17T07:15:16.927Z,1002.04
2023-03-17T07:16:16.994Z,1002.09
2023-03-17T07:17:16.980Z,1002.10
2023-03-17T07:18:16.901Z,1002.11
2023-03-17T07:19:17.034Z,1002.10
2023-03-17T07:20:16.893Z,1002.10
2023-03-17T07:21:16.855Z,1002.07
2023-03-17T07:22:16.849Z,1002.06
2023-03-17T07:23:16.854Z,1002.10
2023-03-17T07:24:16.823Z,1002.07
2023-03-17T07:25:16.880Z,1002.11
2023-03-17T07:26:16.803Z,1002.12
2023-03-17T07:27:16.844Z,1002.12
2023-03-17T07:28:16.815Z,1002.14
2023-03-17T07:29:16.807Z,1002.09
2023-03-17T07:30:16.766Z,1002.13
2023-03-17T07:31:16.815Z,1002.12
2023-03-17T07:32:16.749Z,1002.05
2023-03-17T07:33:16.768Z,1002.00
2023-03-17T07:34:16.731Z,1002.00
2023-03-17T07:35:16.712Z,1002.01
2023-03-17T07:36:16.766Z,1001.98
2023-03-17T07:37:16.700Z,1002.01
2023-03-17T07:38:16.693Z,1002.06
2023-03-17T07:39:16.733Z,1002.10
2023-03-17T07:40:16.657Z,1002.10
2023-03-17T07:41:16.648Z,1002.09
2023-03-17T07:42:16.674Z,1002.08
2023-03-17T07:43:16.626Z,1002.12
2023-03-17T07:44:16.622Z,1002.09
2023-03-17T07:45:16.612Z,1002.11
2023-03-17T07:46:16.773Z,1002.10
2023-03-17T07:47:16.580Z,1002.06
2023-03-17T07:48:16.591Z,1002.11
2023-03-17T07:49:17.318Z,1002.16
2023-03-17T07:50:16.572Z,1002.12
2023-03-17T07:51:16.530Z,1002.12
2023-03-17T07:52:16.602Z,1002.09
2023-03-17T07:53:16.562Z,1002.09
2023-03-17T07:54:16.508Z,1002.12
2023-03-17T07:55:16.548Z,1002.04
2023-03-17T07:56:16.484Z,1002.06
2023-03-17T07:57:16.608Z,1002.07
2023-03-17T07:58:16.457Z,1002.06
2023-03-17T07:59:16.447Z,1002.09
2023-03-17T08:00:16.448Z,1002.09
2023-03-17T08:01:16.490Z,1002.11
2023-03-17T08:02:16.512Z,1002.08
2023-03-17T08:03:16.513Z,1002.08
2023-03-17T08:04:16.400Z,1002.08
2023-03-17T08:05:16.394Z,1002.06
2023-03-17T08:06:16.388Z,1002.02
2023-03-17T08:07:16.379Z,1001.98
2023-03-17T08:08:16.398Z,1001.99
2023-03-17T08:09:16.357Z,1001.93
2023-03-17T08:10:16.352Z,1001.94
2023-03-17T08:11:16.333Z,1001.90
2023-03-17T08:12:16.509Z,1001.90
2023-03-17T08:13:16.307Z,1001.90
2023-03-17T08:14:16.295Z,1001.89
2023-03-17T08:15:16.310Z,1001.87
2023-03-17T08:16:16.371Z,1001.90
2023-03-17T08:17:16.278Z,1001.82
2023-03-17T08:18:16.265Z,1001.84
2023-03-17T08:19:16.299Z,1001.78
2023-03-17T08:20:16.254Z,1001.80
2023-03-17T08:21:16.245Z,1001.85
2023-03-17T08:22:16.207Z,1001.84
2023-03-17T08:23:16.214Z,1001.85
2023-03-17T08:24:16.220Z,1001.89
2023-03-17T08:25:16.233Z,1001.94
2023-03-17T08:26:17.971Z,1001.92
2023-03-17T08:27:16.154Z,1001.94
2023-03-17T08:28:16.143Z,1001.96
2023-03-17T08:29:16.146Z,1001.96
2023-03-17T08:30:17.970Z,1002.00
2023-03-17T08:31:16.158Z,1001.98
2023-03-17T08:32:16.096Z,1002.01
2023-03-17T08:33:16.117Z,1002.02
2023-03-17T08:34:16.070Z,1002.00
2023-03-17T08:35:16.111Z,1002.01
2023-03-17T08:36:16.052Z,1002.03
2023-03-17T08:37:16.111Z,1001.99
2023-03-17T08:38:16.082Z,1001.98
2023-03-17T08:39:16.069Z,1001.95
2023-03-17T08:40:16.031Z,1001.96
2023-03-17T08:41:16.004Z,1001.94
2023-03-17T08:42:16.011Z,1001.97
2023-03-17T08:43:15.985Z,1001.99
2023-03-17T08:44:17.728Z,1001.98
2023-03-17T08:45:15.976Z,1002.00
2023-03-17T08:46:16.098Z,1002.04
2023-03-17T08:47:15.929Z,1002.05
2023-03-17T08:48:15.931Z,1002.04
2023-03-17T08:49:15.913Z,1002.05
2023-03-17T08:50:15.925Z,1002.09
2023-03-17T08:51:18.415Z,1002.05
2023-03-17T08:52:15.922Z,1002.09
2023-03-17T08:53:15.871Z,1002.06
2023-03-17T08:54:15.861Z,1002.05
2023-03-17T08:55:15.854Z,1002.04
2023-03-17T08:56:15.848Z,1002.09
2023-03-17T08:57:15.877Z,1002.05
2023-03-17T08:58:15.886Z,1002.02
2023-03-17T08:59:16.967Z,1002.03
2023-03-17T09:00:15.799Z,1002.02
2023-03-17T09:01:15.888Z,1002.04
2023-03-17T09:02:15.889Z,1002.04
2023-03-17T09:03:15.773Z,1002.04
2023-03-17T09:04:15.813Z,1002.03
2023-03-17T09:05:15.743Z,1002.05
2023-03-17T09:06:15.747Z,1002.10
2023-03-17T09:07:15.721Z,1002.20
2023-03-17T09:08:15.794Z,1002.17
2023-03-17T09:09:15.739Z,1002.15
2023-03-17T09:10:15.694Z,1002.13
2023-03-17T09:11:15.680Z,1002.10
2023-03-17T09:12:15.674Z,1002.13
2023-03-17T09:13:15.708Z,1002.07
2023-03-17T09:14:15.645Z,1002.07
2023-03-17T09:15:15.701Z,1002.08
2023-03-17T09:16:15.661Z,1002.04
2023-03-17T09:17:15.641Z,1002.04
2023-03-17T09:18:15.643Z,1002.05
2023-03-17T09:19:15.590Z,1002.04
2023-03-17T09:20:15.613Z,1002.01
2023-03-17T09:21:15.572Z,1002.00
2023-03-17T09:22:15.656Z,1001.98
2023-03-17T09:23:15.559Z,1002.00
2023-03-17T09:24:15.530Z,1002.03
2023-03-17T09:25:15.522Z,1002.06
2023-03-17T09:26:15.510Z,1002.00
2023-03-17T09:27:15.521Z,1002.01
2023-03-17T09:28:15.550Z,1002.04
2023-03-17T09:29:15.481Z,1002.03
2023-03-17T09:30:15.511Z,1001.99
2023-03-17T09:31:15.489Z,1002.00
2023-03-17T09:32:15.547Z,1001.96
2023-03-17T09:33:15.440Z,1002.03
2023-03-17T09:34:15.450Z,1002.06
2023-03-17T09:35:15.431Z,1002.05
2023-03-17T09:36:15.405Z,1002.02
2023-03-17T09:37:15.400Z,1002.03
2023-03-17T09:38:15.425Z,1001.99
2023-03-17T09:39:15.389Z,1001.99
2023-03-17T09:40:15.404Z,1001.99
2023-03-17T09:41:15.358Z,1002.00
2023-03-17T09:42:15.329Z,1002.02
2023-03-17T09:43:15.339Z,1002.03
2023-03-17T09:44:15.341Z,1002.03
2023-03-17T09:45:15.310Z,1002.10
2023-03-17T09:46:18.038Z,1002.04
2023-03-17T09:47:15.302Z,1002.09
2023-03-17T09:48:15.282Z,1002.05
2023-03-17T09:49:15.270Z,1002.01
2023-03-17T09:50:15.250Z,1001.93
2023-03-17T09:51:15.248Z,1002.02
2023-03-17T09:52:15.318Z,1001.95
2023-03-17T09:53:15.219Z,1002.00
2023-03-17T09:54:15.225Z,1001.98
2023-03-17T09:55:16.928Z,1001.99
2023-03-17T09:56:15.198Z,1002.00
2023-03-17T09:57:15.199Z,1002.01
2023-03-17T09:58:15.199Z,1001.98
2023-03-17T09:59:15.159Z,1001.97
2023-03-17T10:00:15.150Z,1001.94
2023-03-17T10:01:15.198Z,1001.91
2023-03-17T10:02:15.148Z,1001.87
2023-03-17T10:03:15.148Z,1001.85
2023-03-17T10:04:17.600Z,1001.86
2023-03-17T10:05:15.123Z,1001.85
2023-03-17T10:06:15.080Z,1001.83
2023-03-17T10:07:15.069Z,1001.91
2023-03-17T10:08:29.404Z,1001.89
2023-03-17T10:09:16.056Z,1001.92
2023-03-17T10:10:15.202Z,1001.91
2023-03-17T10:11:15.033Z,1001.93
2023-03-17T10:12:15.019Z,1001.91
2023-03-17T10:13:15.015Z,1001.88
2023-03-17T10:14:15.040Z,1001.87
2023-03-17T10:15:15.540Z,1001.84
2023-03-17T10:16:15.031Z,1001.78
2023-03-17T10:17:14.983Z,1001.82
2023-03-17T10:18:14.952Z,1001.79
2023-03-17T10:19:14.955Z,1001.80
2023-03-17T10:20:14.950Z,1001.81
2023-03-17T10:21:16.990Z,1001.80
2023-03-17T10:22:14.930Z,1001.79
2023-03-17T10:23:14.898Z,1001.85
2023-03-17T10:24:14.897Z,1001.88
2023-03-17T10:25:14.888Z,1001.77
2023-03-17T10:26:14.905Z,1001.77
2023-03-17T10:27:14.891Z,1001.76
2023-03-17T10:28:14.871Z,1001.80
2023-03-17T10:29:14.880Z,1001.78
2023-03-17T10:30:14.873Z,1001.79
2023-03-17T10:31:15.096Z,1001.77
2023-03-17T10:32:14.813Z,1001.81
2023-03-17T10:33:14.808Z,1001.83
2023-03-17T10:34:14.818Z,1001.85
2023-03-17T10:35:14.771Z,1001.83
2023-03-17T10:36:14.828Z,1001.78
2023-03-17T10:37:14.801Z,1001.79
2023-03-17T10:38:14.860Z,1001.81
2023-03-17T10:39:14.737Z,1001.77
2023-03-17T10:40:14.720Z,1001.80
2023-03-17T10:41:14.716Z,1001.78
2023-03-17T10:42:14.704Z,1001.78
2023-03-17T10:43:14.910Z,1001.75
2023-03-17T10:44:14.749Z,1001.73
2023-03-17T10:45:14.670Z,1001.73
2023-03-17T10:46:14.660Z,1001.71
2023-03-17T10:47:14.738Z,1001.77
2023-03-17T10:48:14.670Z,1001.75
2023-03-17T10:49:14.630Z,1001.73
2023-03-17T10:50:14.611Z,1001.71
2023-03-17T10:51:14.650Z,1001.67
2023-03-17T10:52:14.631Z,1001.73
2023-03-17T10:53:14.570Z,1001.79
2023-03-17T10:54:14.567Z,1001.72
2023-03-17T10:55:14.564Z,1001.76
2023-03-17T10:56:14.553Z,1001.71
2023-03-17T10:57:14.571Z,1001.70
2023-03-17T10:58:14.573Z,1001.71
2023-03-17T10:59:14.572Z,1001.68
2023-03-17T11:00:14.513Z,1001.67
2023-03-17T11:01:14.553Z,1001.65
2023-03-17T11:02:14.529Z,1001.64
2023-03-17T11:03:14.461Z,1001.57
2023-03-17T11:04:14.612Z,1001.58
2023-03-17T11:05:14.444Z,1001.57
2023-03-17T11:06:14.484Z,1001.60
2023-03-17T11:07:14.433Z,1001.57
2023-03-17T11:08:14.460Z,1001.58
2023-03-17T11:09:14.412Z,1001.57
2023-03-17T11:10:14.464Z,1001.58
2023-03-17T11:11:14.385Z,1001.48
2023-03-17T11:12:14.373Z,1001.45
2023-03-17T11:13:14.355Z,1001.43
2023-03-17T11:14:14.357Z,1001.45
2023-03-17T11:15:16.636Z,1001.43
2023-03-17T11:16:14.365Z,1001.48
2023-03-17T11:17:14.314Z,1001.48
2023-03-17T11:18:14.379Z,1001.54
2023-03-17T11:19:14.310Z,1001.53
2023-03-17T11:20:14.296Z,1001.56
2023-03-17T11:21:14.316Z,1001.60
2023-03-17T11:22:14.303Z,1001.55
2023-03-17T11:23:14.246Z,1001.54
2023-03-17T11:24:14.330Z,1001.56
2023-03-17T11:25:14.226Z,1001.50
2023-03-17T11:26:14.295Z,1001.51
2023-03-17T11:27:14.206Z,1001.51
2023-03-17T11:28:14.211Z,1001.51
2023-03-17T11:29:14.214Z,1001.52
2023-03-17T11:30:14.859Z,1001.50
2023-03-17T11:31:14.202Z,1001.47
2023-03-17T11:32:14.159Z,1001.50
2023-03-17T11:33:14.180Z,1001.41
2023-03-17T11:34:14.152Z,1001.46
2023-03-17T11:35:14.136Z,1001.46
2023-03-17T11:36:14.175Z,1001.49
2023-03-17T11:37:14.117Z,1001.51
2023-03-17T11:38:14.092Z,1001.44
2023-03-17T11:39:14.086Z,1001.45
2023-03-17T11:40:14.076Z,1001.40
2023-03-17T11:41:14.056Z,1001.44
2023-03-17T11:42:15.745Z,1001.46
2023-03-17T11:43:14.036Z,1001.40
2023-03-17T11:44:14.064Z,1001.40
2023-03-17T11:45:14.015Z,1001.37
2023-03-17T11:46:15.880Z,1001.37
2023-03-17T11:47:13.998Z,1001.30
2023-03-17T11:48:13.988Z,1001.26
2023-03-17T11:49:13.975Z,1001.30
2023-03-17T11:50:13.966Z,1001.30
2023-03-17T11:51:14.004Z,1001.30
2023-03-17T11:52:13.974Z,1001.29
2023-03-17T11:53:13.937Z,1001.29
2023-03-17T11:54:13.933Z,1001.30
2023-03-17T11:55:13.904Z,1001.35
2023-03-17T11:56:13.904Z,1001.33
2023-03-17T11:57:13.905Z,1001.35
2023-03-17T11:58:15.573Z,1001.29
2023-03-17T11:59:13.868Z,1001.24
2023-03-17T12:00:13.896Z,1001.27
2023-03-17T12:01:13.843Z,1001.25
2023-03-17T12:02:13.842Z,1001.24
2023-03-17T12:03:13.827Z,1001.28
2023-03-17T12:04:13.830Z,1001.26
2023-03-17T12:05:13.811Z,1001.27